sensor_id;sensor_type;location;lat;lon;timestamp;temperature;humidity
63407;SHT31;49543;45.892;10.838;2023-12-29T12:30:37;9.42;75.14
63407;SHT31;49543;45.892;10.838;2023-12-29T12:33:04;9.39;75.42
63407;SHT31;49543;45.892;10.838;2023-12-29T12:35:30;9.39;75.87
63407;SHT31;49543;45.892;10.838;2023-12-29T12:38:14;9.39;76.19
63407;SHT31;49543;45.892;10.838;2023-12-29T12:40:41;9.40;76.23
63407;SHT31;49543;45.892;10.838;2023-12-29T12:43:07;9.43;76.48
63407;SHT31;49543;45.892;10.838;2023-12-29T12:45:42;9.45;76.61
63407;SHT31;49543;45.892;10.838;2023-12-29T15:14:15;9.31;85.86
63407;SHT31;49543;45.892;10.838;2023-12-29T15:16:40;9.29;85.97
63407;SHT31;49543;45.892;10.838;2023-12-29T15:19:06;9.29;86.12
63407;SHT31;49543;45.892;10.838;2023-12-29T15:21:33;9.25;86.34
63407;SHT31;49543;45.892;10.838;2023-12-29T15:23:59;9.25;86.48
63407;SHT31;49543;45.892;10.838;2023-12-29T15:26:24;9.24;86.56
63407;SHT31;49543;45.892;10.838;2023-12-29T15:28:50;9.21;86.63
63407;SHT31;49543;45.892;10.838;2023-12-29T15:31:17;9.21;86.77
63407;SHT31;49543;45.892;10.838;2023-12-29T15:33:43;9.19;86.77
63407;SHT31;49543;45.892;10.838;2023-12-29T15:36:13;9.19;86.59
63407;SHT31;49543;45.892;10.838;2023-12-29T15:38:39;9.15;86.51
63407;SHT31;49543;45.892;10.838;2023-12-29T15:41:05;9.12;86.52
63407;SHT31;49543;45.892;10.838;2023-12-29T15:43:30;9.12;86.53
63407;SHT31;49543;45.892;10.838;2023-12-29T15:45:56;9.14;86.38
63407;SHT31;49543;45.892;10.838;2023-12-29T15:48:21;9.10;86.43
63407;SHT31;49543;45.892;10.838;2023-12-29T15:50:47;9.08;86.45
63407;SHT31;49543;45.892;10.838;2023-12-29T15:53:12;9.10;86.42
63407;SHT31;49543;45.892;10.838;2023-12-29T15:55:38;9.08;86.41
63407;SHT31;49543;45.892;10.838;2023-12-29T15:58:03;9.10;86.42
63407;SHT31;49543;45.892;10.838;2023-12-29T16:00:29;9.07;86.49
63407;SHT31;49543;45.892;10.838;2023-12-29T16:02:55;9.08;86.69
63407;SHT31;49543;45.892;10.838;2023-12-29T16:05:20;9.05;86.55
63407;SHT31;49543;45.892;10.838;2023-12-29T16:07:45;9.04;86.57
63407;SHT31;49543;45.892;10.838;2023-12-29T16:10:11;9.07;86.69
63407;SHT31;49543;45.892;10.838;2023-12-29T16:12:36;9.08;86.77
63407;SHT31;49543;45.892;10.838;2023-12-29T16:15:03;9.03;86.63
63407;SHT31;49543;45.892;10.838;2023-12-29T16:17:29;9.04;86.65
63407;SHT31;49543;45.892;10.838;2023-12-29T16:19:54;9.03;86.75
63407;SHT31;49543;45.892;10.838;2023-12-29T16:22:19;9.03;86.78
63407;SHT31;49543;45.892;10.838;2023-12-29T16:24:45;9.00;86.52
63407;SHT31;49543;45.892;10.838;2023-12-29T16:27:13;8.99;86.59
63407;SHT31;49543;45.892;10.838;2023-12-29T16:29:39;8.94;86.57
63407;SHT31;49543;45.892;10.838;2023-12-29T16:32:05;8.96;86.57
63407;SHT31;49543;45.892;10.838;2023-12-29T16:34:31;8.97;86.64
63407;SHT31;49543;45.892;10.838;2023-12-29T16:37:00;8.97;86.67
63407;SHT31;49543;45.892;10.838;2023-12-29T16:39:26;8.94;86.64
63407;SHT31;49543;45.892;10.838;2023-12-29T16:41:51;8.96;86.63
63407;SHT31;49543;45.892;10.838;2023-12-29T16:44:17;8.94;86.71
63407;SHT31;49543;45.892;10.838;2023-12-29T16:46:42;8.94;86.84
63407;SHT31;49543;45.892;10.838;2023-12-29T16:49:08;8.94;86.87
63407;SHT31;49543;45.892;10.838;2023-12-29T16:51:34;8.91;87.05
63407;SHT31;49543;45.892;10.838;2023-12-29T16:53:59;8.94;87.16
63407;SHT31;49543;45.892;10.838;2023-12-29T16:56:27;8.90;87.20
63407;SHT31;49543;45.892;10.838;2023-12-29T16:59:00;8.93;87.23
63407;SHT31;49543;45.892;10.838;2023-12-29T17:01:26;8.88;87.30
63407;SHT31;49543;45.892;10.838;2023-12-29T17:03:51;8.88;87.33
63407;SHT31;49543;45.892;10.838;2023-12-29T17:06:17;8.88;87.40
63407;SHT31;49543;45.892;10.838;2023-12-29T17:08:42;8.87;87.40
63407;SHT31;49543;45.892;10.838;2023-12-29T17:11:08;8.87;87.44
63407;SHT31;49543;45.892;10.838;2023-12-29T17:13:33;8.85;87.35
63407;SHT31;49543;45.892;10.838;2023-12-29T17:16:00;8.84;87.27
63407;SHT31;49543;45.892;10.838;2023-12-29T17:18:28;8.84;87.18
63407;SHT31;49543;45.892;10.838;2023-12-29T17:20:54;8.83;87.29
63407;SHT31;49543;45.892;10.838;2023-12-29T17:23:20;8.80;87.36
63407;SHT31;49543;45.892;10.838;2023-12-29T17:25:45;8.80;87.37
63407;SHT31;49543;45.892;10.838;2023-12-29T17:28:11;8.79;87.40
63407;SHT31;49543;45.892;10.838;2023-12-29T17:30:36;8.74;87.39
63407;SHT31;49543;45.892;10.838;2023-12-29T17:33:02;8.76;87.49
63407;SHT31;49543;45.892;10.838;2023-12-29T17:35:27;8.73;87.45
63407;SHT31;49543;45.892;10.838;2023-12-29T17:37:53;8.72;87.32
63407;SHT31;49543;45.892;10.838;2023-12-29T17:40:18;8.73;87.31
63407;SHT31;49543;45.892;10.838;2023-12-29T17:42:43;8.70;87.40
63407;SHT31;49543;45.892;10.838;2023-12-29T17:45:09;8.69;87.46
63407;SHT31;49543;45.892;10.838;2023-12-29T17:47:35;8.67;87.52
63407;SHT31;49543;45.892;10.838;2023-12-29T17:50:01;8.67;87.56
63407;SHT31;49543;45.892;10.838;2023-12-29T17:52:26;8.66;87.51
63407;SHT31;49543;45.892;10.838;2023-12-29T17:54:52;8.64;87.52
63407;SHT31;49543;45.892;10.838;2023-12-29T17:57:17;8.59;87.43
63407;SHT31;49543;45.892;10.838;2023-12-29T17:59:43;8.56;87.51
63407;SHT31;49543;45.892;10.838;2023-12-29T18:02:08;8.53;87.58
63407;SHT31;49543;45.892;10.838;2023-12-29T18:04:34;8.52;87.66
63407;SHT31;49543;45.892;10.838;2023-12-29T18:06:59;8.49;87.70
63407;SHT31;49543;45.892;10.838;2023-12-29T18:09:24;8.48;87.73
63407;SHT31;49543;45.892;10.838;2023-12-29T18:11:50;8.46;87.77
63407;SHT31;49543;45.892;10.838;2023-12-29T18:14:16;8.45;87.79
63407;SHT31;49543;45.892;10.838;2023-12-29T18:16:42;8.39;87.67
63407;SHT31;49543;45.892;10.838;2023-12-29T18:19:07;8.41;87.77
63407;SHT31;49543;45.892;10.838;2023-12-29T18:21:33;8.38;87.84
63407;SHT31;49543;45.892;10.838;2023-12-29T18:24:00;8.35;87.76
63407;SHT31;49543;45.892;10.838;2023-12-29T18:26:25;8.35;87.86
63407;SHT31;49543;45.892;10.838;2023-12-29T18:28:51;8.32;87.81
63407;SHT31;49543;45.892;10.838;2023-12-29T18:31:16;8.32;87.72
63407;SHT31;49543;45.892;10.838;2023-12-29T18:33:44;8.28;87.70
63407;SHT31;49543;45.892;10.838;2023-12-29T18:36:10;8.26;87.77
63407;SHT31;49543;45.892;10.838;2023-12-29T18:38:36;8.25;87.82
63407;SHT31;49543;45.892;10.838;2023-12-29T18:41:08;8.22;87.73
63407;SHT31;49543;45.892;10.838;2023-12-29T18:43:35;8.25;87.58
63407;SHT31;49543;45.892;10.838;2023-12-29T18:46:04;8.24;87.48
63407;SHT31;49543;45.892;10.838;2023-12-29T18:48:30;8.21;87.46
63407;SHT31;49543;45.892;10.838;2023-12-29T18:50:55;8.22;87.54
63407;SHT31;49543;45.892;10.838;2023-12-29T18:53:20;8.21;87.51
63407;SHT31;49543;45.892;10.838;2023-12-29T18:55:46;8.17;87.55
63407;SHT31;49543;45.892;10.838;2023-12-29T18:58:11;8.15;87.60
63407;SHT31;49543;45.892;10.838;2023-12-29T19:00:37;8.14;87.66
63407;SHT31;49543;45.892;10.838;2023-12-29T19:03:03;8.14;87.75
63407;SHT31;49543;45.892;10.838;2023-12-29T19:05:28;8.08;87.71
63407;SHT31;49543;45.892;10.838;2023-12-29T19:07:55;8.07;87.82
63407;SHT31;49543;45.892;10.838;2023-12-29T19:10:20;8.04;87.82
63407;SHT31;49543;45.892;10.838;2023-12-29T19:12:46;8.01;87.97
63407;SHT31;49543;45.892;10.838;2023-12-29T19:15:13;7.98;88.06
63407;SHT31;49543;45.892;10.838;2023-12-29T19:17:40;7.97;88.14
63407;SHT31;49543;45.892;10.838;2023-12-29T19:20:06;7.94;88.24
63407;SHT31;49543;45.892;10.838;2023-12-29T19:22:31;7.90;88.25
63407;SHT31;49543;45.892;10.838;2023-12-29T19:24:57;7.88;88.39
63407;SHT31;49543;45.892;10.838;2023-12-29T19:27:22;7.87;88.56
63407;SHT31;49543;45.892;10.838;2023-12-29T19:29:48;7.86;88.57
63407;SHT31;49543;45.892;10.838;2023-12-29T19:32:14;7.84;88.64
63407;SHT31;49543;45.892;10.838;2023-12-29T19:34:41;7.84;88.58
63407;SHT31;49543;45.892;10.838;2023-12-29T19:37:07;7.87;88.52
63407;SHT31;49543;45.892;10.838;2023-12-29T19:39:33;7.84;88.52
63407;SHT31;49543;45.892;10.838;2023-12-29T19:41:58;7.83;88.40
63407;SHT31;49543;45.892;10.838;2023-12-29T19:44:24;7.81;88.53
63407;SHT31;49543;45.892;10.838;2023-12-29T19:46:49;7.80;88.56
63407;SHT31;49543;45.892;10.838;2023-12-29T19:49:15;7.79;88.53
63407;SHT31;49543;45.892;10.838;2023-12-29T19:51:40;7.79;88.60
63407;SHT31;49543;45.892;10.838;2023-12-29T19:54:06;7.79;88.57
63407;SHT31;49543;45.892;10.838;2023-12-29T19:56:31;7.81;88.54
63407;SHT31;49543;45.892;10.838;2023-12-29T19:58:57;7.74;88.33
63407;SHT31;49543;45.892;10.838;2023-12-29T20:01:23;7.76;88.58
63407;SHT31;49543;45.892;10.838;2023-12-29T20:03:49;7.71;88.37
63407;SHT31;49543;45.892;10.838;2023-12-29T20:06:24;7.66;88.41
63407;SHT31;49543;45.892;10.838;2023-12-29T20:08:50;7.66;88.52
63407;SHT31;49543;45.892;10.838;2023-12-29T20:11:17;7.65;88.50
63407;SHT31;49543;45.892;10.838;2023-12-29T20:13:42;7.67;88.49
63407;SHT31;49543;45.892;10.838;2023-12-29T20:16:08;7.63;88.57
63407;SHT31;49543;45.892;10.838;2023-12-29T20:18:35;7.65;88.62
63407;SHT31;49543;45.892;10.838;2023-12-29T20:21:01;7.66;88.58
63407;SHT31;49543;45.892;10.838;2023-12-29T20:23:29;7.63;88.61
63407;SHT31;49543;45.892;10.838;2023-12-29T20:25:55;7.65;88.65
63407;SHT31;49543;45.892;10.838;2023-12-29T20:28:21;7.65;88.59
63407;SHT31;49543;45.892;10.838;2023-12-29T20:30:46;7.62;88.46
63407;SHT31;49543;45.892;10.838;2023-12-29T20:33:12;7.62;88.47
63407;SHT31;49543;45.892;10.838;2023-12-29T20:35:38;7.59;88.55
63407;SHT31;49543;45.892;10.838;2023-12-29T20:38:06;7.63;88.29
63407;SHT31;49543;45.892;10.838;2023-12-29T20:40:31;7.60;88.33
63407;SHT31;49543;45.892;10.838;2023-12-29T20:42:57;7.60;88.27
63407;SHT31;49543;45.892;10.838;2023-12-29T20:45:22;7.56;88.37
63407;SHT31;49543;45.892;10.838;2023-12-29T20:47:48;7.56;88.47
63407;SHT31;49543;45.892;10.838;2023-12-29T20:50:13;7.55;88.46
63407;SHT31;49543;45.892;10.838;2023-12-29T20:52:39;7.55;88.34
63407;SHT31;49543;45.892;10.838;2023-12-29T20:55:05;7.53;88.42
63407;SHT31;49543;45.892;10.838;2023-12-29T20:57:31;7.50;88.16
63407;SHT31;49543;45.892;10.838;2023-12-29T20:59:57;7.49;88.38
63407;SHT31;49543;45.892;10.838;2023-12-29T21:02:23;7.49;88.46
63407;SHT31;49543;45.892;10.838;2023-12-29T21:04:50;7.49;88.42
63407;SHT31;49543;45.892;10.838;2023-12-29T21:07:16;7.48;88.38
63407;SHT31;49543;45.892;10.838;2023-12-29T21:09:41;7.48;88.35
63407;SHT31;49543;45.892;10.838;2023-12-29T21:12:07;7.46;88.29
63407;SHT31;49543;45.892;10.838;2023-12-29T21:14:40;7.45;88.25
63407;SHT31;49543;45.892;10.838;2023-12-29T21:17:10;7.41;88.45
63407;SHT31;49543;45.892;10.838;2023-12-29T21:19:38;7.41;88.46
63407;SHT31;49543;45.892;10.838;2023-12-29T21:22:03;7.41;88.34
63407;SHT31;49543;45.892;10.838;2023-12-29T21:24:29;7.36;88.16
63407;SHT31;49543;45.892;10.838;2023-12-29T21:26:54;7.33;88.17
63407;SHT31;49543;45.892;10.838;2023-12-29T21:29:20;7.33;88.31
63407;SHT31;49543;45.892;10.838;2023-12-29T21:31:45;7.32;88.42
63407;SHT31;49543;45.892;10.838;2023-12-29T21:34:11;7.28;88.36
63407;SHT31;49543;45.892;10.838;2023-12-29T21:36:37;7.23;88.04
63407;SHT31;49543;45.892;10.838;2023-12-29T21:39:06;7.21;88.41
63407;SHT31;49543;45.892;10.838;2023-12-29T21:41:34;7.18;88.59
63407;SHT31;49543;45.892;10.838;2023-12-29T21:44:00;7.16;88.75
63407;SHT31;49543;45.892;10.838;2023-12-29T21:46:28;7.19;88.69
63407;SHT31;49543;45.892;10.838;2023-12-29T21:48:56;7.18;88.64
63407;SHT31;49543;45.892;10.838;2023-12-29T21:51:23;7.16;88.23
63407;SHT31;49543;45.892;10.838;2023-12-29T21:53:51;7.15;88.44
63407;SHT31;49543;45.892;10.838;2023-12-29T21:56:17;7.09;88.66
63407;SHT31;49543;45.892;10.838;2023-12-29T21:58:42;7.07;88.79
63407;SHT31;49543;45.892;10.838;2023-12-29T22:01:28;7.07;88.75
63407;SHT31;49543;45.892;10.838;2023-12-29T22:03:54;7.05;88.78
63407;SHT31;49543;45.892;10.838;2023-12-29T22:06:23;7.05;88.82
63407;SHT31;49543;45.892;10.838;2023-12-29T22:08:49;7.03;88.92
63407;SHT31;49543;45.892;10.838;2023-12-29T22:11:16;7.03;88.95
63407;SHT31;49543;45.892;10.838;2023-12-29T22:13:41;7.01;88.94
63407;SHT31;49543;45.892;10.838;2023-12-29T22:16:07;7.01;88.87
63407;SHT31;49543;45.892;10.838;2023-12-29T22:18:33;7.01;88.82
63407;SHT31;49543;45.892;10.838;2023-12-29T22:20:58;6.98;88.92
63407;SHT31;49543;45.892;10.838;2023-12-29T22:23:24;6.95;88.74
63407;SHT31;49543;45.892;10.838;2023-12-29T22:25:49;6.94;88.83
63407;SHT31;49543;45.892;10.838;2023-12-29T22:28:15;6.91;88.92
63407;SHT31;49543;45.892;10.838;2023-12-29T22:30:40;6.91;88.99
63407;SHT31;49543;45.892;10.838;2023-12-29T22:33:05;6.88;89.16
63407;SHT31;49543;45.892;10.838;2023-12-29T22:35:31;6.88;89.30
63407;SHT31;49543;45.892;10.838;2023-12-29T22:37:57;6.93;89.45
63407;SHT31;49543;45.892;10.838;2023-12-29T22:40:23;6.93;89.49
63407;SHT31;49543;45.892;10.838;2023-12-29T22:42:48;6.95;89.45
63407;SHT31;49543;45.892;10.838;2023-12-29T22:45:14;6.95;89.36
63407;SHT31;49543;45.892;10.838;2023-12-29T22:47:39;6.98;89.43
63407;SHT31;49543;45.892;10.838;2023-12-29T22:50:06;6.97;89.18
63407;SHT31;49543;45.892;10.838;2023-12-29T22:52:32;6.97;89.26
63407;SHT31;49543;45.892;10.838;2023-12-29T22:55:00;6.97;89.31
